createdAt,value
2023-09-02T00:00:18.620Z,59.50
2023-09-02T00:02:44.923Z,59.16
2023-09-02T00:05:11.291Z,60.29
2023-09-02T00:07:37.555Z,58.77
2023-09-02T00:10:03.911Z,58.39
2023-09-02T00:12:30.372Z,59.34
2023-09-02T00:14:56.644Z,57.87
2023-09-02T00:17:23.719Z,56.45
2023-09-02T00:19:50.008Z,56.13
2023-09-02T00:22:16.293Z,54.98
2023-09-02T00:27:30.924Z,55.04
2023-09-02T00:29:57.211Z,55.51
2023-09-02T00:32:23.615Z,55.72
2023-09-02T00:34:49.918Z,57.60
2023-09-02T00:37:16.205Z,57.89
2023-09-02T00:39:42.481Z,57.59
2023-09-02T00:42:08.744Z,59.10
2023-09-02T00:44:35.006Z,57.51
2023-09-02T00:47:01.283Z,57.16
2023-09-02T00:49:27.547Z,57.21
2023-09-02T00:51:53.821Z,55.44
2023-09-02T00:54:20.095Z,54.12
2023-09-02T00:56:46.372Z,55.21
2023-09-02T00:59:12.664Z,56.26
2023-09-02T01:01:38.929Z,56.45
2023-09-02T01:04:05.227Z,58.00
2023-09-02T01:06:31.510Z,58.90
2023-09-02T01:08:57.825Z,58.14
2023-09-02T01:11:24.120Z,59.13
2023-09-02T01:13:50.442Z,59.77
2023-09-02T01:16:16.758Z,60.03
2023-09-02T01:18:43.057Z,58.42
2023-09-02T01:21:09.314Z,58.79
2023-09-02T01:23:35.576Z,57.83
2023-09-02T01:26:01.848Z,57.70
2023-09-02T01:28:28.168Z,57.34
2023-09-02T01:30:54.528Z,56.70
2023-09-02T01:33:20.827Z,56.10
2023-09-02T01:35:47.174Z,55.97
2023-09-02T01:38:13.585Z,57.13
2023-09-02T01:40:39.879Z,60.29
2023-09-02T01:43:06.185Z,61.86
2023-09-02T01:45:32.509Z,61.22
2023-09-02T01:47:58.957Z,61.98
2023-09-02T01:50:25.418Z,62.24
2023-09-02T01:52:51.690Z,63.41
2023-09-02T01:55:17.986Z,62.84
2023-09-02T01:57:44.290Z,61.55
2023-09-02T02:00:10.590Z,59.83
2023-09-02T02:02:36.942Z,60.62
2023-09-02T02:05:03.224Z,62.33
2023-09-02T02:07:29.500Z,63.83
2023-09-02T02:09:56.112Z,63.23
2023-09-02T02:12:22.483Z,63.34
2023-09-02T02:14:48.833Z,63.41
2023-09-02T02:17:15.188Z,62.68
2023-09-02T02:19:41.451Z,62.80
2023-09-02T02:22:07.710Z,62.55
2023-09-02T02:24:34.051Z,62.11
2023-09-02T02:27:00.333Z,62.65
2023-09-02T02:29:26.601Z,62.13
2023-09-02T02:31:52.909Z,60.72
2023-09-02T02:34:19.195Z,59.81
2023-09-02T02:36:45.464Z,58.99
2023-09-02T02:39:11.752Z,58.24
2023-09-02T02:41:38.036Z,59.54
2023-09-02T02:44:04.312Z,61.75
2023-09-02T02:46:30.566Z,60.75
2023-09-02T02:48:56.823Z,59.61
2023-09-02T02:51:23.087Z,59.85
2023-09-02T02:53:49.353Z,59.64
2023-09-02T02:56:15.621Z,58.41
2023-09-02T02:58:41.909Z,59.54
2023-09-02T03:01:08.260Z,61.07
2023-09-02T03:03:34.614Z,60.42
2023-09-02T03:06:00.896Z,60.93
2023-09-02T03:08:27.197Z,60.69
2023-09-02T03:10:53.485Z,60.42
2023-09-02T03:13:19.769Z,60.87
2023-09-02T03:15:46.045Z,59.36
2023-09-02T03:18:12.335Z,58.48
2023-09-02T03:20:38.599Z,57.38
2023-09-02T03:23:04.868Z,58.39
2023-09-02T03:25:31.152Z,58.12
2023-09-02T03:27:57.405Z,57.95
2023-09-02T03:30:23.661Z,57.45
2023-09-02T03:32:50.033Z,58.08
2023-09-02T03:35:16.414Z,60.87
2023-09-02T03:37:42.725Z,60.78
2023-09-02T03:40:09.003Z,61.73
2023-09-02T03:42:35.278Z,60.84
2023-09-02T03:45:01.537Z,60.95
2023-09-02T03:47:27.896Z,59.87
2023-09-02T03:49:54.261Z,59.88
2023-09-02T03:52:20.528Z,61.82
2023-09-02T03:54:46.788Z,61.81
2023-09-02T03:57:13.045Z,61.80
2023-09-02T03:59:39.305Z,60.50
2023-09-02T04:02:05.556Z,60.51
2023-09-02T04:04:31.833Z,59.28
2023-09-02T04:06:58.114Z,60.64
2023-09-02T04:09:24.429Z,60.08
2023-09-02T04:11:50.689Z,57.94
2023-09-02T04:14:36.946Z,58.04
2023-09-02T04:17:18.995Z,57.96
2023-09-02T04:19:45.274Z,58.80
2023-09-02T04:22:11.538Z,57.82
2023-09-02T04:24:37.798Z,56.59
2023-09-02T04:27:04.064Z,57.29
2023-09-02T04:29:30.340Z,57.08
2023-09-02T04:31:59.092Z,58.35
2023-09-02T04:34:25.639Z,57.55
2023-09-02T04:36:51.992Z,55.17
2023-09-02T04:39:18.302Z,56.75
2023-09-02T04:41:44.580Z,56.56
2023-09-02T04:44:10.894Z,56.15
2023-09-02T04:46:37.209Z,57.66
2023-09-02T04:49:03.526Z,58.34
2023-09-02T04:51:29.823Z,59.07
2023-09-02T04:53:56.121Z,58.71
2023-09-02T04:56:22.429Z,60.68
2023-09-02T04:58:49.030Z,61.15
2023-09-02T05:01:15.333Z,61.13
2023-09-02T05:03:41.628Z,60.55
2023-09-02T05:06:07.941Z,60.26
2023-09-02T05:08:34.274Z,59.96
2023-09-02T05:11:00.606Z,59.59
2023-09-02T05:13:26.891Z,58.11
2023-09-02T05:15:53.245Z,58.13
2023-09-02T05:18:19.593Z,59.44
2023-09-02T05:20:47.707Z,58.70
2023-09-02T05:23:15.122Z,57.82
2023-09-02T05:25:41.429Z,58.28
2023-09-02T05:28:07.697Z,59.14
2023-09-02T05:30:34.026Z,59.60
2023-09-02T05:33:00.396Z,55.74
2023-09-02T05:35:26.694Z,55.42
2023-09-02T05:37:52.971Z,56.76
2023-09-02T05:40:19.269Z,57.97
2023-09-02T05:42:45.606Z,57.20
2023-09-02T05:45:11.871Z,57.04
2023-09-02T05:47:38.148Z,58.80
2023-09-02T05:50:04.443Z,58.55
2023-09-02T05:52:30.733Z,57.40
2023-09-02T05:54:57.039Z,57.17
2023-09-02T05:57:23.355Z,57.29
2023-09-02T05:59:49.620Z,57.05
2023-09-02T06:02:15.890Z,58.33
2023-09-02T06:04:42.159Z,58.03
2023-09-02T06:07:08.428Z,58.13
2023-09-02T06:09:34.704Z,57.41
2023-09-02T06:12:00.974Z,57.80
2023-09-02T06:14:27.248Z,56.09
2023-09-02T06:16:53.537Z,56.63
2023-09-02T06:19:19.867Z,55.39
2023-09-02T06:21:46.159Z,54.97
2023-09-02T06:24:12.436Z,54.88
2023-09-02T06:26:38.716Z,53.60
2023-09-02T06:29:05.485Z,53.64
2023-09-02T06:31:31.770Z,55.41
2023-09-02T06:33:58.051Z,55.72
2023-09-02T06:36:24.316Z,52.66
2023-09-02T06:38:50.601Z,51.22
2023-09-02T06:41:16.975Z,52.24
2023-09-02T06:43:43.252Z,50.81
2023-09-02T06:46:09.518Z,52.06
2023-09-02T06:48:35.812Z,51.63
2023-09-02T06:51:02.096Z,52.08
2023-09-02T06:53:28.362Z,53.36
2023-09-02T06:55:54.631Z,54.55
2023-09-02T06:58:20.897Z,51.50
2023-09-02T07:00:49.473Z,52.90
2023-09-02T07:03:15.957Z,51.63
2023-09-02T07:05:42.365Z,52.34
2023-09-02T07:08:09.088Z,52.07
2023-09-02T07:10:35.376Z,52.20
2023-09-02T07:13:01.641Z,53.49
2023-09-02T07:15:27.914Z,52.38
2023-09-02T07:17:54.230Z,52.47
2023-09-02T07:20:20.530Z,50.92
2023-09-02T07:22:46.793Z,51.55
2023-09-02T07:25:13.056Z,51.41
2023-09-02T07:27:39.363Z,49.50
2023-09-02T07:30:05.613Z,52.40
2023-09-02T07:32:31.879Z,51.68
2023-09-02T07:34:58.141Z,53.49
2023-09-02T07:37:24.431Z,50.51
2023-09-02T07:39:50.723Z,51.34
2023-09-02T07:42:16.993Z,52.21
2023-09-02T07:44:43.261Z,52.46
2023-09-02T07:47:09.546Z,53.06
2023-09-02T07:49:35.806Z,52.36
2023-09-02T07:52:02.070Z,49.29
2023-09-02T07:54:28.335Z,51.47
2023-09-02T07:56:54.612Z,53.08
2023-09-02T07:59:22.580Z,52.79
2023-09-02T08:01:48.870Z,51.66
2023-09-02T08:04:15.177Z,49.99
2023-09-02T08:06:41.469Z,51.98
2023-09-02T08:09:07.734Z,52.58
2023-09-02T08:11:34.007Z,51.63
2023-09-02T08:14:00.276Z,51.42
2023-09-02T08:16:26.550Z,50.73
2023-09-02T08:18:52.822Z,54.06
2023-09-02T08:21:19.103Z,50.92
2023-09-02T08:23:45.380Z,51.79
2023-09-02T08:26:11.641Z,54.34
2023-09-02T08:28:37.916Z,52.86
2023-09-02T08:31:04.248Z,50.80
2023-09-02T08:33:30.530Z,50.60
2023-09-02T08:35:56.799Z,50.97
2023-09-02T08:38:23.075Z,49.64
2023-09-02T08:40:49.340Z,51.60
2023-09-02T08:43:15.681Z,52.51
2023-09-02T08:45:42.115Z,52.43
2023-09-02T08:48:08.433Z,49.85
2023-09-02T08:50:34.723Z,51.23
2023-09-02T08:53:00.979Z,51.44
2023-09-02T08:55:27.238Z,49.95
2023-09-02T08:57:53.552Z,52.22
2023-09-02T09:00:19.836Z,52.14
2023-09-02T09:02:46.149Z,50.75
2023-09-02T09:05:12.500Z,49.21
2023-09-02T09:07:38.780Z,49.22
2023-09-02T09:10:05.037Z,52.75
2023-09-02T09:12:31.294Z,49.16
2023-09-02T09:14:57.565Z,48.54
2023-09-02T09:17:23.869Z,50.09
2023-09-02T09:19:50.210Z,50.33
2023-09-02T09:22:16.493Z,49.84
2023-09-02T09:24:42.759Z,51.07
2023-09-02T09:27:09.014Z,49.79
2023-09-02T09:29:35.284Z,50.61
2023-09-02T09:32:01.568Z,48.99
2023-09-02T09:34:27.854Z,48.24
2023-09-02T09:36:54.126Z,48.91
2023-09-02T09:39:20.402Z,47.53
2023-09-02T09:41:46.680Z,50.02
2023-09-02T09:44:13.048Z,44.27
2023-09-02T09:46:39.318Z,44.87
2023-09-02T09:49:05.598Z,46.11
2023-09-02T09:51:31.944Z,44.74
2023-09-02T09:53:58.206Z,45.10
2023-09-02T09:56:24.480Z,45.21
2023-09-02T09:58:50.761Z,45.69
2023-09-02T10:01:17.066Z,45.60
2023-09-02T10:03:43.322Z,46.35
2023-09-02T10:06:09.631Z,45.76
2023-09-02T10:08:35.929Z,44.08
2023-09-02T10:11:02.206Z,45.12
2023-09-02T10:13:28.464Z,46.43
2023-09-02T10:15:54.808Z,46.88
2023-09-02T10:18:21.127Z,47.17
2023-09-02T10:20:47.431Z,45.31
2023-09-02T10:23:13.705Z,47.03
2023-09-02T10:25:39.968Z,44.28
2023-09-02T10:28:06.236Z,44.23
2023-09-02T10:30:33.878Z,44.08
2023-09-02T10:33:00.442Z,45.29
2023-09-02T10:35:26.717Z,46.40
2023-09-02T10:37:52.983Z,44.70
2023-09-02T10:40:19.260Z,43.69
2023-09-02T10:42:45.553Z,45.95
2023-09-02T10:45:11.827Z,46.75
2023-09-02T10:47:38.124Z,44.02
2023-09-02T10:50:04.397Z,45.72
2023-09-02T10:52:30.653Z,45.03
2023-09-02T10:54:56.913Z,45.16
2023-09-02T10:57:23.184Z,44.33
2023-09-02T10:59:49.441Z,46.55
2023-09-02T11:02:15.760Z,44.38
2023-09-02T11:04:44.622Z,45.63
2023-09-02T11:07:11.438Z,41.33
2023-09-02T11:09:37.742Z,40.79
2023-09-02T11:12:03.994Z,44.12
2023-09-02T11:14:30.275Z,41.95
2023-09-02T11:16:56.585Z,43.25
2023-09-02T11:19:22.891Z,39.98
2023-09-02T11:21:49.154Z,42.12
2023-09-02T11:24:15.441Z,41.21
2023-09-02T11:26:41.700Z,41.09
2023-09-02T11:29:07.998Z,40.73
2023-09-02T11:31:34.268Z,41.87
2023-09-02T11:34:00.522Z,40.32
2023-09-02T11:36:26.793Z,42.19
2023-09-02T11:38:53.064Z,41.27
2023-09-02T11:41:19.339Z,41.13
2023-09-02T11:43:45.601Z,40.43
2023-09-02T11:46:11.931Z,41.49
2023-09-02T11:48:38.194Z,43.61
2023-09-02T11:51:04.470Z,41.76
2023-09-02T11:53:30.729Z,42.25
2023-09-02T11:55:56.991Z,41.83
2023-09-02T11:58:23.258Z,40.70
2023-09-02T12:00:49.539Z,41.91
2023-09-02T12:03:15.905Z,40.70
2023-09-02T12:05:42.244Z,41.77
2023-09-02T12:08:08.524Z,41.63
2023-09-02T12:10:34.792Z,42.82
2023-09-02T12:13:01.067Z,41.11
2023-09-02T12:15:27.329Z,40.22
2023-09-02T12:17:53.623Z,38.11
2023-09-02T12:20:19.883Z,40.68
2023-09-02T12:22:46.151Z,39.47
2023-09-02T12:25:12.411Z,40.97
2023-09-02T12:27:41.061Z,41.47
2023-09-02T12:30:08.170Z,41.24
2023-09-02T12:32:34.463Z,42.17
2023-09-02T12:35:00.783Z,40.86
2023-09-02T12:37:27.061Z,40.59
2023-09-02T12:39:53.332Z,40.10
2023-09-02T12:42:19.605Z,40.12
2023-09-02T12:44:45.857Z,40.40
2023-09-02T12:47:12.112Z,40.03
2023-09-02T12:49:38.385Z,40.57
2023-09-02T12:52:04.683Z,41.16
2023-09-02T12:54:30.943Z,42.12
2023-09-02T12:56:57.219Z,41.63
2023-09-02T12:59:23.498Z,40.18
2023-09-02T13:01:49.803Z,38.45
2023-09-02T13:04:16.072Z,39.85
2023-09-02T13:06:42.351Z,42.46
2023-09-02T13:09:08.630Z,43.13
2023-09-02T13:11:34.900Z,43.75
2023-09-02T13:14:01.167Z,44.35
2023-09-02T13:16:27.481Z,44.33
2023-09-02T13:18:53.779Z,44.35
2023-09-02T13:21:20.058Z,45.86
2023-09-02T13:23:46.320Z,44.77
2023-09-02T13:26:12.577Z,45.12
2023-09-02T13:28:38.834Z,45.55
2023-09-02T13:31:05.161Z,47.50
2023-09-02T13:33:31.463Z,44.94
2023-09-02T13:35:57.751Z,46.17
2023-09-02T13:38:24.027Z,44.38
2023-09-02T13:40:50.424Z,44.80
2023-09-02T13:43:17.076Z,44.00
2023-09-02T13:45:43.540Z,44.75
2023-09-02T13:48:09.916Z,43.54
2023-09-02T13:50:36.238Z,43.83
2023-09-02T13:53:02.517Z,44.41
2023-09-02T13:55:28.849Z,44.36
2023-09-02T13:57:55.136Z,43.42
2023-09-02T14:00:21.397Z,42.97
2023-09-02T14:02:47.695Z,42.39
2023-09-02T14:05:14.013Z,42.99
2023-09-02T14:07:40.285Z,44.33
2023-09-02T14:10:06.557Z,42.88
2023-09-02T14:12:32.829Z,43.08
2023-09-02T14:14:59.109Z,44.92
2023-09-02T14:17:25.374Z,44.46
2023-09-02T14:19:52.953Z,44.12
2023-09-02T14:22:19.243Z,44.78
2023-09-02T14:24:45.492Z,45.12
2023-09-02T14:27:11.856Z,47.69
2023-09-02T14:29:38.197Z,45.08
2023-09-02T14:32:04.469Z,45.78
2023-09-02T14:34:30.759Z,45.51
2023-09-02T14:36:57.037Z,45.91
2023-09-02T14:39:23.355Z,47.02
2023-09-02T14:41:49.707Z,47.85
2023-09-02T14:44:15.977Z,44.71
2023-09-02T14:46:42.282Z,43.89
2023-09-02T14:49:08.573Z,45.09
2023-09-02T14:51:34.841Z,45.86
2023-09-02T14:54:01.181Z,45.41
2023-09-02T14:56:27.469Z,44.86
2023-09-02T14:58:53.740Z,45.06
2023-09-02T15:01:20.045Z,44.79
2023-09-02T15:03:46.388Z,45.20
2023-09-02T15:06:12.896Z,46.27
2023-09-02T15:08:39.517Z,46.51
2023-09-02T15:11:05.785Z,45.58
2023-09-02T15:13:32.071Z,46.02
2023-09-02T15:15:58.481Z,46.53
2023-09-02T15:18:24.880Z,45.68
2023-09-02T15:20:51.238Z,46.44
2023-09-02T15:23:17.732Z,45.69
2023-09-02T15:25:44.182Z,46.06
2023-09-02T15:28:10.458Z,46.34
2023-09-02T15:30:36.878Z,45.88
2023-09-02T15:33:03.243Z,41.18
2023-09-02T15:35:29.524Z,43.59
2023-09-02T15:37:55.790Z,44.11
2023-09-02T15:40:22.077Z,48.49
2023-09-02T15:42:48.388Z,50.37
2023-09-02T15:45:14.695Z,50.02
2023-09-02T15:47:41.051Z,50.21
2023-09-02T15:50:07.375Z,49.46
2023-09-02T15:52:33.638Z,51.97
2023-09-02T15:54:59.933Z,49.82
2023-09-02T15:57:26.198Z,51.25
2023-09-02T15:59:52.450Z,52.29
2023-09-02T16:02:18.748Z,52.18
2023-09-02T16:04:45.044Z,52.19
2023-09-02T16:07:11.313Z,52.49
2023-09-02T16:09:37.594Z,52.29
2023-09-02T16:12:03.865Z,51.38
2023-09-02T16:14:30.134Z,49.99
2023-09-02T16:16:56.397Z,53.57
2023-09-02T16:19:22.652Z,55.43
2023-09-02T16:21:48.919Z,54.94
2023-09-02T16:24:15.204Z,54.03
2023-09-02T16:26:42.764Z,54.06
2023-09-02T16:29:09.043Z,55.77
2023-09-02T16:31:35.355Z,55.27
2023-09-02T16:34:01.611Z,54.68
2023-09-02T16:36:27.880Z,54.22
2023-09-02T16:38:54.187Z,54.53
2023-09-02T16:41:20.464Z,55.53
2023-09-02T16:43:54.778Z,55.46
2023-09-02T16:46:27.815Z,56.83
2023-09-02T16:48:54.094Z,57.53
2023-09-02T16:51:20.351Z,58.02
2023-09-02T16:53:46.626Z,56.88
2023-09-02T16:56:12.900Z,57.14
2023-09-02T16:58:39.207Z,56.62
2023-09-02T17:01:05.548Z,56.14
2023-09-02T17:03:31.971Z,56.10
2023-09-02T17:05:58.368Z,57.25
2023-09-02T17:08:24.699Z,56.61
2023-09-02T17:10:51.021Z,57.20
2023-09-02T17:13:17.599Z,57.71
2023-09-02T17:15:44.049Z,56.87
2023-09-02T17:18:10.487Z,55.94
2023-09-02T17:20:36.802Z,54.60
2023-09-02T17:23:03.090Z,55.54
2023-09-02T17:25:29.374Z,56.68
2023-09-02T17:27:55.674Z,57.75
2023-09-02T17:30:21.980Z,57.55
2023-09-02T17:32:48.494Z,56.79
2023-09-02T17:35:14.825Z,57.11
2023-09-02T17:37:41.110Z,56.65
2023-09-02T17:40:07.426Z,54.36
2023-09-02T17:42:33.698Z,54.18
2023-09-02T17:44:59.988Z,53.64
2023-09-02T17:47:26.256Z,56.25
2023-09-02T17:49:52.505Z,55.95
2023-09-02T17:52:18.772Z,55.67
2023-09-02T17:54:45.042Z,55.83
2023-09-02T17:57:11.307Z,56.76
2023-09-02T17:59:37.574Z,56.01
2023-09-02T18:02:06.080Z,55.95
2023-09-02T18:04:32.575Z,53.87
2023-09-02T18:06:58.836Z,54.62
2023-09-02T18:09:25.108Z,52.74
2023-09-02T18:11:51.389Z,53.75
2023-09-02T18:14:17.660Z,53.40
2023-09-02T18:16:43.939Z,52.85
2023-09-02T18:19:10.219Z,52.88
2023-09-02T18:21:36.483Z,53.42
2023-09-02T18:24:02.779Z,52.99
2023-09-02T18:26:29.085Z,55.39
2023-09-02T18:28:55.400Z,55.65
2023-09-02T18:31:21.743Z,56.73
2023-09-02T18:33:48.032Z,57.53
2023-09-02T18:36:14.324Z,58.53
2023-09-02T18:38:40.610Z,56.36
2023-09-02T18:41:06.879Z,56.94
2023-09-02T18:43:33.191Z,55.56
2023-09-02T18:45:59.485Z,54.48
2023-09-02T18:48:25.748Z,55.26
2023-09-02T18:50:52.023Z,55.48
2023-09-02T18:53:18.334Z,57.13
2023-09-02T18:55:44.678Z,57.14
2023-09-02T18:58:11.900Z,55.87
2023-09-02T19:00:38.490Z,55.88
2023-09-02T19:03:04.884Z,54.56
2023-09-02T19:05:31.204Z,56.11
2023-09-02T19:07:57.480Z,57.14
2023-09-02T19:10:23.797Z,55.25
2023-09-02T19:12:50.079Z,54.72
2023-09-02T19:15:16.345Z,55.06
2023-09-02T19:17:42.687Z,54.99
2023-09-02T19:20:09.013Z,54.44
2023-09-02T19:22:35.329Z,54.90
2023-09-02T19:25:01.620Z,55.89
2023-09-02T19:27:27.883Z,57.14
2023-09-02T19:29:54.145Z,57.41
2023-09-02T19:32:20.408Z,56.64
2023-09-02T19:34:46.685Z,56.75
2023-09-02T19:37:12.952Z,57.35
2023-09-02T19:39:39.212Z,59.53
2023-09-02T19:42:05.482Z,59.31
2023-09-02T19:44:31.773Z,58.83
2023-09-02T19:46:58.046Z,57.59
2023-09-02T19:49:24.305Z,58.37
2023-09-02T19:51:50.595Z,57.80
2023-09-02T19:54:16.880Z,57.07
2023-09-02T19:56:43.162Z,58.07
2023-09-02T19:59:09.463Z,58.50
2023-09-02T20:01:35.832Z,58.38
2023-09-02T20:04:02.145Z,56.96
2023-09-02T20:06:28.436Z,56.89
2023-09-02T20:08:54.900Z,56.17
2023-09-02T20:11:21.235Z,56.53
2023-09-02T20:13:47.526Z,56.79
2023-09-02T20:16:13.872Z,57.99
2023-09-02T20:18:40.182Z,58.85
2023-09-02T20:21:06.459Z,58.55
2023-09-02T20:23:32.840Z,57.99
2023-09-02T20:25:59.133Z,58.09
2023-09-02T20:28:25.403Z,58.71
2023-09-02T20:30:51.684Z,59.43
2023-09-02T20:33:18.002Z,59.12
2023-09-02T20:35:44.314Z,57.78
2023-09-02T20:38:10.609Z,56.89
2023-09-02T20:40:36.878Z,56.29
2023-09-02T20:43:03.153Z,57.35
2023-09-02T20:45:29.413Z,57.86
2023-09-02T20:47:55.820Z,57.78
2023-09-02T20:50:22.122Z,58.13
2023-09-02T20:52:48.390Z,57.92
2023-09-02T20:55:14.675Z,57.96
2023-09-02T20:57:40.985Z,56.83
2023-09-02T21:00:07.262Z,58.00
2023-09-02T21:02:33.799Z,58.83
2023-09-02T21:05:00.102Z,59.55
2023-09-02T21:07:26.401Z,59.68
2023-09-02T21:09:52.676Z,61.11
2023-09-02T21:12:18.945Z,61.92
2023-09-02T21:14:45.196Z,61.25
2023-09-02T21:17:11.476Z,60.63
2023-09-02T21:19:37.765Z,60.54
2023-09-02T21:22:04.032Z,59.98
2023-09-02T21:24:30.316Z,58.83
2023-09-02T21:26:58.365Z,59.37
2023-09-02T21:29:24.944Z,58.68
2023-09-02T21:31:51.223Z,59.62
2023-09-02T21:34:17.522Z,59.49
2023-09-02T21:36:43.789Z,59.00
2023-09-02T21:39:10.058Z,59.47
2023-09-02T21:41:36.344Z,60.10
2023-09-02T21:44:02.653Z,60.08
2023-09-02T21:46:29.010Z,58.57
2023-09-02T21:48:55.262Z,60.03
2023-09-02T21:51:21.556Z,61.41
2023-09-02T21:53:47.860Z,60.99
2023-09-02T21:56:14.115Z,60.33
2023-09-02T21:58:40.392Z,60.30
2023-09-02T22:01:06.698Z,60.03
2023-09-02T22:03:33.106Z,60.29
2023-09-02T22:05:59.520Z,60.42
2023-09-02T22:08:25.796Z,61.53
2023-09-02T22:10:52.083Z,59.53
2023-09-02T22:13:18.567Z,59.48
2023-09-02T22:15:45.060Z,59.41
2023-09-02T22:18:11.323Z,59.33
2023-09-02T22:20:37.602Z,59.62
2023-09-02T22:23:03.885Z,60.11
2023-09-02T22:25:30.157Z,60.93
2023-09-02T22:27:56.413Z,61.92
2023-09-02T22:30:22.700Z,62.82
2023-09-02T22:32:49.083Z,63.00
2023-09-02T22:35:15.358Z,62.62
2023-09-02T22:37:41.638Z,62.96
2023-09-02T22:40:07.909Z,62.94
2023-09-02T22:42:34.185Z,62.38
2023-09-02T22:45:00.486Z,62.83
2023-09-02T22:47:26.801Z,62.90
2023-09-02T22:49:53.162Z,63.43
2023-09-02T22:52:19.454Z,64.40
2023-09-02T22:54:45.780Z,63.16
2023-09-02T22:57:12.036Z,62.75
2023-09-02T22:59:38.348Z,61.84
2023-09-02T23:02:04.698Z,62.64
2023-09-02T23:04:30.974Z,63.18
2023-09-02T23:06:57.316Z,63.88
2023-09-02T23:09:23.592Z,64.91
2023-09-02T23:11:49.880Z,63.52
2023-09-02T23:14:16.190Z,60.86
2023-09-02T23:16:42.527Z,59.36
2023-09-02T23:19:08.870Z,58.90
2023-09-02T23:21:35.225Z,60.03
2023-09-02T23:24:01.504Z,61.85
2023-09-02T23:26:27.762Z,63.13
2023-09-02T23:28:54.018Z,63.16
2023-09-02T23:31:20.324Z,63.10
2023-09-02T23:33:46.645Z,63.52
2023-09-02T23:36:12.934Z,63.47
2023-09-02T23:38:39.281Z,64.24
2023-09-02T23:41:05.554Z,63.83
2023-09-02T23:43:32.018Z,62.67
2023-09-02T23:45:58.555Z,62.27
2023-09-02T23:48:25.169Z,62.66
2023-09-02T23:50:51.730Z,62.46
2023-09-02T23:53:18.029Z,61.96
2023-09-02T23:55:44.345Z,61.12
2023-09-02T23:58:10.604Z,62.53
